Time;durP1;ratioP1;P1;durP2;ratioP2;P2;SDS_P1;SDS_P2;PMS_P1;PMS_P2;Temp;Humidity;BMP_temperature;BMP_pressure;BME280_temperature;BME280_humidity;BME280_pressure;Samples;Min_cycle;Max_cycle;Signal;HPM_P1;HPM_P2
2023/03/13 00:01:16;;;;;;;23.30;14.00;;;;;;;0.83;70.41;99999.30;103741;279;38522;-70
2023/03/13 00:03:51;;;;;;;20.50;10.10;;;;;;;0.83;70.40;100003.25;103726;279;38256;-72
2023/03/13 00:06:26;;;;;;;24.20;12.30;;;;;;;0.86;70.46;99997.74;103702;279;39533;-72
2023/03/13 00:09:00;;;;;;;24.40;12.40;;;;;;;0.89;70.46;99994.30;103632;279;38238;-73
2023/03/13 00:11:34;;;;;;;21.00;11.00;;;;;;;0.92;70.34;99993.41;103707;279;38371;-73
2023/03/13 00:14:08;;;;;;;20.00;10.20;;;;;;;0.94;70.35;99992.21;103743;279;38720;-71
2023/03/13 00:16:42;;;;;;;22.40;11.70;;;;;;;0.96;70.26;99992.55;103705;279;39451;-71
2023/03/13 00:19:16;;;;;;;17.80;9.70;;;;;;;0.97;70.30;99989.09;103720;279;39915;-72
2023/03/13 00:21:50;;;;;;;19.60;9.50;;;;;;;0.97;70.14;99988.92;103684;279;40319;-71
2023/03/13 00:24:24;;;;;;;18.10;9.40;;;;;;;0.96;70.04;99993.39;103620;279;175960;-72
2023/03/13 00:27:02;;;;;;;21.50;9.60;;;;;;;0.96;70.07;99994.42;103727;279;38258;-72
2023/03/13 00:29:35;;;;;;;19.30;9.60;;;;;;;0.97;70.12;99987.38;103763;279;39684;-72
2023/03/13 00:32:10;;;;;;;16.80;9.00;;;;;;;0.99;70.14;99988.41;103710;279;39495;-71
2023/03/13 00:34:44;;;;;;;16.90;8.70;;;;;;;1.02;70.12;99995.93;103717;279;39949;-72
2023/03/13 00:37:18;;;;;;;15.80;8.90;;;;;;;1.06;70.16;99995.92;103727;279;38223;-72
2023/03/13 00:39:52;;;;;;;17.10;9.30;;;;;;;1.08;70.08;99996.24;103730;279;38292;-70
2023/03/13 00:42:26;;;;;;;15.50;8.50;;;;;;;1.11;70.17;99993.15;103714;279;38753;-72
2023/03/13 00:45:00;;;;;;;14.00;8.30;;;;;;;1.12;70.12;99990.39;103709;279;39690;-72
2023/03/13 00:47:34;;;;;;;13.50;8.00;;;;;;;1.13;70.21;99983.52;103705;279;39541;-72
2023/03/13 00:50:11;;;;;;;15.50;8.20;;;;;;;1.12;70.10;99987.29;103701;279;39472;-70
2023/03/13 00:52:46;;;;;;;15.00;8.60;;;;;;;1.12;70.15;99989.36;103606;279;175894;-70
2023/03/13 00:55:19;;;;;;;18.70;9.20;;;;;;;1.13;70.23;99986.27;103682;279;39672;-72
2023/03/13 00:57:53;;;;;;;14.70;8.10;;;;;;;1.14;70.38;99989.52;103703;279;40357;-72
2023/03/13 01:00:28;;;;;;;17.30;9.90;;;;;;;1.16;70.33;99984.87;103737;279;38788;-72
2023/03/13 01:03:02;;;;;;;17.60;10.00;;;;;;;1.20;70.33;99974.20;103730;279;39466;-74
2023/03/13 01:05:35;;;;;;;20.20;9.90;;;;;;;1.24;70.44;99967.48;103690;279;39102;-73
2023/03/13 01:08:10;;;;;;;15.30;9.50;;;;;;;1.24;70.54;99960.77;103697;279;38461;-71
2023/03/13 01:10:43;;;;;;;18.90;11.50;;;;;;;1.24;70.57;99958.88;103690;279;40439;-71
2023/03/13 01:13:17;;;;;;;17.10;10.20;;;;;;;1.25;70.59;99952.69;103729;279;39915;-72
2023/03/13 01:15:51;;;;;;;18.70;10.20;;;;;;;1.25;70.55;99948.73;103702;279;39486;-71
2023/03/13 01:18:25;;;;;;;15.70;9.30;;;;;;;1.22;70.53;99943.42;103676;279;39676;-73
2023/03/13 01:20:59;;;;;;;14.10;7.90;;;;;;;1.23;70.78;99938.27;103730;279;38479;-73
2023/03/13 01:23:32;;;;;;;17.00;8.90;;;;;;;1.25;70.68;99938.42;103728;279;40226;-74
2023/03/13 01:26:08;;;;;;;18.40;9.80;;;;;;;1.29;70.91;99935.83;103693;279;39923;-73
2023/03/13 01:28:41;;;;;;;22.10;11.80;;;;;;;1.32;71.01;99933.21;103706;279;39440;-73
2023/03/13 01:31:17;;;;;;;35.70;17.60;;;;;;;1.33;71.01;99930.98;103717;279;38989;-74
2023/03/13 01:33:53;;;;;;;36.80;17.60;;;;;;;1.32;70.97;99933.05;103763;279;38503;-72
2023/03/13 01:36:29;;;;;;;31.40;15.40;;;;;;;1.30;70.78;99925.33;103744;279;38845;-72
2023/03/13 01:39:03;;;;;;;34.90;16.00;;;;;;;1.30;70.83;99921.55;103759;279;38253;-70
2023/03/13 01:41:37;;;;;;;35.20;16.70;;;;;;;1.29;71.05;99916.58;103732;279;40179;-71
2023/03/13 01:44:21;;;;;;;23.60;12.00;;;;;;;1.30;71.02;99914.52;103764;279;38381;-71
2023/03/13 01:46:55;;;;;;;21.10;10.40;;;;;;;1.33;70.96;99906.40;103746;279;38526;-72
2023/03/13 01:49:32;;;;;;;15.30;9.70;;;;;;;1.36;70.91;99902.08;103755;279;38894;-71
2023/03/13 01:52:07;;;;;;;12.90;7.70;;;;;;;1.40;70.91;99896.90;103738;279;39595;-72
2023/03/13 01:54:42;;;;;;;11.20;7.00;;;;;;;1.42;70.80;99894.45;103683;279;38261;-70
2023/03/13 01:57:18;;;;;;;10.90;7.00;;;;;;;1.44;70.70;99896.36;103707;279;38278;-72
2023/03/13 01:59:53;;;;;;;9.40;6.40;;;;;;;1.46;70.61;99894.43;103711;279;39995;-73
2023/03/13 02:02:27;;;;;;;9.70;6.10;;;;;;;1.47;70.59;99890.83;103713;279;38961;-73
2023/03/13 02:05:02;;;;;;;11.20;7.30;;;;;;;1.47;70.59;99887.90;103744;279;38595;-73
2023/03/13 02:07:39;;;;;;;11.30;6.80;;;;;;;1.50;70.58;99886.15;103725;279;37948;-74
2023/03/13 02:10:14;;;;;;;14.20;8.40;;;;;;;1.53;70.47;99882.69;103757;279;38276;-69
2023/03/13 02:12:49;;;;;;;12.30;6.90;;;;;;;1.58;70.51;99881.95;103689;279;39416;-72
2023/03/13 02:15:24;;;;;;;14.50;7.80;;;;;;;1.59;70.49;99882.98;103659;279;38341;-72
2023/03/13 02:17:59;;;;;;;13.70;8.10;;;;;;;1.62;70.41;99883.12;103710;279;38918;-74
2023/03/13 02:20:32;;;;;;;16.10;9.10;;;;;;;1.65;70.44;99885.16;103690;279;38289;-72
2023/03/13 02:23:09;;;;;;;16.60;9.10;;;;;;;1.66;70.35;99887.02;103733;279;40083;-72
2023/03/13 02:25:46;;;;;;;16.50;8.90;;;;;;;1.66;70.20;99885.66;103682;279;38292;-72
2023/03/13 02:28:23;;;;;;;12.30;8.00;;;;;;;1.65;70.31;99886.53;103760;279;38421;-72
2023/03/13 02:30:58;;;;;;;13.30;7.40;;;;;;;1.67;70.33;99888.57;103771;279;39406;-72
2023/03/13 02:33:34;;;;;;;12.80;8.20;;;;;;;1.70;70.38;99887.52;103750;279;39639;-72
2023/03/13 02:36:11;;;;;;;17.40;9.60;;;;;;;1.74;70.29;99885.23;103748;279;38487;-72
2023/03/13 02:38:48;;;;;;;12.40;8.10;;;;;;;1.77;70.42;99885.21;103713;279;39376;-70
2023/03/13 02:41:22;;;;;;;12.90;8.30;;;;;;;1.81;70.39;99885.16;103721;279;38918;-72
2023/03/13 02:43:56;;;;;;;14.20;8.30;;;;;;;1.83;70.43;99879.65;103759;279;39989;-72
2023/03/13 02:46:31;;;;;;;13.90;7.90;;;;;;;1.84;70.32;99877.41;103732;279;38958;-72
2023/03/13 02:49:29;;;;;;;15.80;9.00;;;;;;;1.83;70.37;99883.94;103734;279;39489;-72
2023/03/13 02:52:09;;;;;;;14.00;7.80;;;;;;;1.81;70.50;99878.29;103735;279;39317;-70
2023/03/13 02:54:43;;;;;;;13.00;7.90;;;;;;;1.81;70.52;99880.67;103726;279;38532;-72
2023/03/13 02:57:17;;;;;;;13.60;8.00;;;;;;;1.85;70.61;99879.30;103698;279;38806;-72
2023/03/13 02:59:51;;;;;;;13.00;8.10;;;;;;;1.88;70.74;99878.56;103735;279;39650;-71
2023/03/13 03:02:25;;;;;;;13.20;8.30;;;;;;;1.91;70.73;99885.05;103739;279;38280;-72
2023/03/13 03:04:59;;;;;;;15.40;8.60;;;;;;;1.93;70.74;99886.09;103760;279;38226;-73
2023/03/13 03:07:32;;;;;;;13.70;8.10;;;;;;;1.94;70.76;99879.55;103655;279;178201;-72
2023/03/13 03:10:10;;;;;;;15.40;8.50;;;;;;;1.93;70.84;99885.73;103793;279;39710;-72
2023/03/13 03:12:46;;;;;;;13.70;9.20;;;;;;;1.91;70.93;99886.44;103737;279;38984;-71
2023/03/13 03:15:21;;;;;;;13.00;7.40;;;;;;;1.91;70.88;99887.30;103722;279;38477;-72
2023/03/13 03:17:55;;;;;;;12.70;7.50;;;;;;;1.92;70.96;99878.52;103622;279;189786;-72
2023/03/13 03:20:29;;;;;;;13.70;8.20;;;;;;;1.96;71.10;99877.10;103757;279;39321;-72
2023/03/13 03:23:02;;;;;;;12.60;8.10;;;;;;;1.97;71.09;99872.10;103753;279;39446;-70
2023/03/13 03:25:36;;;;;;;16.50;8.90;;;;;;;2.01;71.20;99875.31;103719;279;38277;-71
2023/03/13 03:28:10;;;;;;;13.90;8.10;;;;;;;2.03;71.18;99880.28;103764;279;38615;-73
2023/03/13 03:30:44;;;;;;;13.10;8.30;;;;;;;2.04;71.24;99877.86;103736;279;38880;-71
2023/03/13 03:33:18;;;;;;;12.90;7.70;;;;;;;2.03;71.11;99875.64;103714;279;39959;-72
2023/03/13 03:35:52;;;;;;;13.90;9.00;;;;;;;2.01;71.11;99873.77;103747;279;39691;-73
2023/03/13 03:38:26;;;;;;;14.50;8.60;;;;;;;2.00;71.23;99870.52;103728;279;39497;-73
2023/03/13 03:41:00;;;;;;;12.50;8.20;;;;;;;2.00;71.26;99868.80;103706;279;38596;-73
2023/03/13 03:43:34;;;;;;;15.00;8.00;;;;;;;2.02;71.17;99864.64;103708;279;38393;-71
2023/03/13 03:46:08;;;;;;;14.40;8.80;;;;;;;2.06;71.25;99865.80;103627;279;39483;-72
2023/03/13 03:48:43;;;;;;;16.50;9.00;;;;;;;2.09;71.21;99870.08;103724;279;39440;-73
2023/03/13 03:51:17;;;;;;;13.20;8.30;;;;;;;2.10;71.19;99865.60;103715;279;38441;-72
2023/03/13 03:53:50;;;;;;;13.90;9.50;;;;;;;2.10;71.05;99858.17;103776;279;38971;-72
2023/03/13 03:56:24;;;;;;;15.30;9.50;;;;;;;2.09;71.13;99848.90;103659;279;38253;-72
2023/03/13 03:58:58;;;;;;;16.00;8.30;;;;;;;2.07;71.11;99846.71;103717;279;39190;-73
2023/03/13 04:01:32;;;;;;;15.40;8.70;;;;;;;2.04;71.24;99846.55;103583;279;175825;-74
2023/03/13 04:04:06;;;;;;;17.20;9.30;;;;;;;2.05;71.25;99840.70;103724;279;38854;-74
2023/03/13 04:06:40;;;;;;;13.40;8.50;;;;;;;2.07;71.45;99847.39;103733;279;38842;-75
2023/03/13 04:09:14;;;;;;;15.60;9.00;;;;;;;2.10;71.60;99847.52;103722;279;38273;-73
2023/03/13 04:11:47;;;;;;;13.70;9.40;;;;;;;2.11;71.79;99841.14;103718;279;38428;-72
2023/03/13 04:14:21;;;;;;;13.40;8.70;;;;;;;2.10;71.96;99835.48;103708;267;38574;-72
2023/03/13 04:16:55;;;;;;;16.10;9.10;;;;;;;2.10;72.10;99836.00;103664;279;39674;-72
2023/03/13 04:19:29;;;;;;;13.30;8.80;;;;;;;2.09;72.50;99833.60;103735;279;39056;-70
2023/03/13 04:22:03;;;;;;;13.70;8.20;;;;;;;2.08;72.73;99830.17;103729;279;39930;-73
2023/03/13 04:24:37;;;;;;;12.20;7.90;;;;;;;2.10;72.90;99829.63;103754;279;38521;-71
2023/03/13 04:27:10;;;;;;;15.50;8.70;;;;;;;2.13;73.09;99822.20;103735;279;38848;-71
2023/03/13 04:29:44;;;;;;;12.50;8.50;;;;;;;2.15;73.30;99814.25;103675;279;38790;-73
2023/03/13 04:32:18;;;;;;;14.80;8.60;;;;;;;2.16;73.40;99810.43;103709;279;39555;-72
2023/03/13 04:34:52;;;;;;;14.90;9.00;;;;;;;2.16;73.71;99804.27;103712;279;38844;-75
2023/03/13 04:37:26;;;;;;;14.10;9.20;;;;;;;2.15;73.73;99801.00;103716;279;40364;-74
2023/03/13 04:40:00;;;;;;;16.80;9.80;;;;;;;2.15;73.88;99794.30;103718;279;40768;-72
2023/03/13 04:42:33;;;;;;;13.70;8.60;;;;;;;2.15;74.15;99797.03;103736;279;38428;-73
2023/03/13 04:45:10;;;;;;;11.70;8.00;;;;;;;2.16;74.50;99804.94;103737;279;38729;-73
2023/03/13 04:47:45;;;;;;;13.90;9.10;;;;;;;2.19;74.69;99803.88;103660;280;38369;-72
2023/03/13 04:50:20;;;;;;;13.90;8.70;;;;;;;2.19;74.93;99800.78;103666;279;38254;-74
2023/03/13 04:52:53;;;;;;;15.00;9.20;;;;;;;2.18;75.32;99799.23;103712;279;40127;-73
2023/03/13 04:55:27;;;;;;;14.30;9.60;;;;;;;2.19;75.63;99793.73;103706;279;38548;-73
2023/03/13 04:58:01;;;;;;;17.00;9.50;;;;;;;2.16;75.77;99792.21;103726;279;38533;-71
2023/03/13 05:00:35;;;;;;;18.50;9.50;;;;;;;2.16;75.86;99795.13;103675;267;39704;-71
2023/03/13 05:03:09;;;;;;;12.60;8.40;;;;;;;2.19;76.25;99791.31;103555;279;175909;-73
2023/03/13 05:05:43;;;;;;;17.20;9.50;;;;;;;2.22;76.28;99782.85;103671;279;39984;-72
2023/03/13 05:08:17;;;;;;;13.60;9.50;;;;;;;2.25;76.41;99782.10;103658;279;39428;-72
2023/03/13 05:10:51;;;;;;;12.80;9.10;;;;;;;2.24;76.60;99781.61;103673;279;38397;-73
2023/03/13 05:13:25;;;;;;;13.00;9.40;;;;;;;2.23;76.84;99780.77;103668;279;39477;-72
2023/03/13 05:15:59;;;;;;;15.40;8.90;;;;;;;2.23;77.29;99774.74;103672;279;38484;-72
2023/03/13 05:18:34;;;;;;;13.30;9.20;;;;;;;2.27;77.17;99772.79;103723;279;38624;-71
2023/03/13 05:21:09;;;;;;;15.20;10.10;;;;;;;2.29;77.23;99773.96;103679;279;38259;-71
2023/03/13 05:23:43;;;;;;;17.20;9.60;;;;;;;2.32;77.24;99777.19;103736;279;38244;-72
2023/03/13 05:26:17;;;;;;;15.40;9.60;;;;;;;2.32;77.52;99778.05;103682;279;39591;-72
2023/03/13 05:28:51;;;;;;;15.80;9.30;;;;;;;2.31;77.51;99779.61;103717;279;39289;-72
2023/03/13 05:31:26;;;;;;;14.40;8.90;;;;;;;2.34;77.49;99776.65;103672;280;38623;-74
2023/03/13 05:34:00;;;;;;;14.70;9.20;;;;;;;2.40;77.67;99774.67;103698;279;38273;-72
2023/03/13 05:36:34;;;;;;;14.70;8.80;;;;;;;2.44;77.85;99770.31;103685;279;39837;-72
2023/03/13 05:39:08;;;;;;;13.90;9.90;;;;;;;2.48;78.09;99774.55;103712;279;38622;-74
2023/03/13 05:41:42;;;;;;;15.20;10.10;;;;;;;2.47;78.06;99775.27;103704;279;38641;-74
2023/03/13 05:44:16;;;;;;;16.60;10.10;;;;;;;2.50;78.41;99784.51;103731;279;38298;-70
2023/03/13 05:46:50;;;;;;;16.60;10.10;;;;;;;2.53;78.54;99780.85;103704;279;38241;-74
2023/03/13 05:49:24;;;;;;;12.60;9.10;;;;;;;2.56;78.58;99784.42;103611;279;175810;-73
2023/03/13 05:51:58;;;;;;;14.10;9.40;;;;;;;2.58;78.65;99783.19;103735;279;39846;-73
2023/03/13 05:54:32;;;;;;;13.90;8.50;;;;;;;2.63;78.71;99781.07;103732;279;38386;-71
2023/03/13 05:57:06;;;;;;;16.10;10.30;;;;;;;2.67;78.83;99784.61;103743;279;39434;-72
2023/03/13 05:59:40;;;;;;;13.50;9.50;;;;;;;2.69;78.80;99784.75;103246;279;38761;-72
2023/03/13 06:02:14;;;;;;;18.50;10.30;;;;;;;2.71;79.02;99776.10;103658;279;39519;-73
2023/03/13 06:04:49;;;;;;;14.50;9.70;;;;;;;2.72;78.97;99768.86;103644;279;38795;-71
2023/03/13 06:07:23;;;;;;;13.90;9.60;;;;;;;2.75;79.08;99766.90;103016;279;916202;-73
2023/03/13 06:09:58;;;;;;;13.20;8.80;;;;;;;2.78;79.32;99769.11;103694;279;38473;-72
2023/03/13 06:12:32;;;;;;;14.30;10.00;;;;;;;2.82;79.34;99771.95;103720;279;38584;-72
2023/03/13 06:15:10;;;;;;;17.90;10.90;;;;;;;2.86;79.31;99767.77;103698;279;38542;-74
2023/03/13 06:17:46;;;;;;;17.10;11.30;;;;;;;2.91;79.51;99768.91;103685;279;39662;-71
2023/03/13 06:20:21;;;;;;;17.80;11.80;;;;;;;2.97;79.85;99765.19;103529;279;175781;-74
2023/03/13 06:22:55;;;;;;;16.40;10.80;;;;;;;3.00;80.12;99765.30;103656;279;39442;-73
2023/03/13 06:25:29;;;;;;;13.80;10.80;;;;;;;3.04;80.14;99768.16;103697;279;39947;-73
2023/03/13 06:28:05;;;;;;;14.50;10.10;;;;;;;3.07;80.18;99764.99;103701;279;38394;-73
2023/03/13 06:30:39;;;;;;;16.50;11.10;;;;;;;3.12;80.36;99766.13;103618;279;38261;-74
2023/03/13 06:33:13;;;;;;;15.10;11.30;;;;;;;3.15;80.43;99765.21;102997;280;914923;-74
2023/03/13 06:35:47;;;;;;;16.90;12.30;;;;;;;3.17;80.57;99768.96;103635;279;39543;-73
2023/03/13 06:38:22;;;;;;;15.90;11.20;;;;;;;3.21;80.75;99768.91;103662;279;38275;-73
2023/03/13 06:40:56;;;;;;;14.60;10.70;;;;;;;3.22;80.74;99771.83;103674;279;39631;-73
2023/03/13 06:43:30;;;;;;;15.20;10.30;;;;;;;3.24;80.92;99767.11;103714;279;39427;-73
2023/03/13 06:46:08;;;;;;;17.50;11.90;;;;;;;3.30;81.14;99765.98;103702;267;38514;-73
2023/03/13 06:48:43;;;;;;;14.60;11.20;;;;;;;3.32;81.27;99759.23;103556;268;174677;-70
2023/03/13 06:51:18;;;;;;;15.90;10.70;;;;;;;3.33;81.56;99756.45;103034;279;914845;-73
2023/03/13 06:53:51;;;;;;;14.40;9.90;;;;;;;3.33;81.63;99758.50;103691;279;39456;-72
2023/03/13 06:56:25;;;;;;;16.60;11.50;;;;;;;3.38;81.81;99757.73;103682;279;38547;-73
2023/03/13 06:59:00;;;;;;;17.20;12.10;;;;;;;3.40;81.65;99753.73;103692;279;39931;-74
2023/03/13 07:01:34;;;;;;;18.60;12.40;;;;;;;3.43;81.94;99755.23;103642;279;38253;-75
2023/03/13 07:04:08;;;;;;;17.60;11.70;;;;;;;3.47;81.88;99756.35;103715;279;39532;-76
2023/03/13 07:06:43;;;;;;;19.90;11.20;;;;;;;3.50;81.89;99749.06;103671;279;39922;-75
2023/03/13 07:09:18;;;;;;;16.90;11.10;;;;;;;3.57;82.08;99748.05;103730;279;39667;-71
2023/03/13 07:11:52;;;;;;;16.40;11.00;;;;;;;3.64;82.04;99744.81;103694;279;37896;-71
2023/03/13 07:14:30;;;;;;;15.60;11.50;;;;;;;3.71;82.05;99740.89;103721;267;38838;-73
2023/03/13 07:17:04;;;;;;;17.40;11.10;;;;;;;3.76;82.27;99743.04;103688;279;38819;-74
2023/03/13 07:19:38;;;;;;;15.40;11.20;;;;;;;3.75;82.34;99744.44;103693;279;38810;-73
2023/03/13 07:22:13;;;;;;;18.20;10.60;;;;;;;3.73;82.08;99742.90;103706;279;38957;-73
2023/03/13 07:24:48;;;;;;;16.20;10.60;;;;;;;3.77;82.20;99741.98;103708;279;39818;-73
2023/03/13 07:27:22;;;;;;;17.90;11.80;;;;;;;3.80;82.22;99737.44;103697;279;38976;-72
2023/03/13 07:29:56;;;;;;;20.20;11.80;;;;;;;3.86;82.19;99731.27;103756;279;38225;-73
2023/03/13 07:32:35;;;;;;;16.60;10.60;;;;;;;3.90;82.15;99729.45;103704;279;38542;-73
2023/03/13 07:35:11;;;;;;;17.30;10.50;;;;;;;3.93;82.11;99725.75;103747;279;39451;-72
2023/03/13 07:37:49;;;;;;;14.80;9.40;;;;;;;3.98;82.14;99724.61;103710;279;40108;-73
2023/03/13 07:40:24;;;;;;;15.10;9.90;;;;;;;4.01;82.05;99718.85;103743;279;38266;-73
2023/03/13 07:42:58;;;;;;;15.00;10.50;;;;;;;4.08;82.38;99716.97;103752;278;39405;-74
2023/03/13 07:45:32;;;;;;;12.20;9.20;;;;;;;4.18;82.32;99717.10;103811;279;38402;-74
2023/03/13 07:48:07;;;;;;;11.60;9.50;;;;;;;4.29;82.28;99717.56;103704;279;175714;-75
2023/03/13 07:50:40;;;;;;;14.00;9.50;;;;;;;4.38;82.18;99712.67;103700;279;38542;-74
2023/03/13 07:53:20;;;;;;;14.80;9.70;;;;;;;4.50;82.20;99713.43;103610;279;189028;-73
2023/03/13 07:56:00;;;;;;;13.50;9.20;;;;;;;4.60;82.04;99712.50;103766;279;39469;-74
2023/03/13 07:58:36;;;;;;;15.50;9.90;;;;;;;4.66;81.84;99709.41;103530;280;176221;-71
2023/03/13 08:01:14;;;;;;;13.20;8.70;;;;;;;4.75;81.83;99706.09;103698;279;39385;-72
2023/03/13 08:03:49;;;;;;;14.80;8.90;;;;;;;4.85;81.55;99704.95;103716;279;39664;-73
2023/03/13 08:06:25;;;;;;;15.00;8.80;;;;;;;4.92;81.36;99698.20;103703;279;39028;-70
2023/03/13 08:09:01;;;;;;;12.00;8.60;;;;;;;5.04;81.46;99693.77;103714;279;38520;-74
2023/03/13 08:11:35;;;;;;;11.50;8.60;;;;;;;5.19;81.32;99690.27;103680;279;38442;-74
2023/03/13 08:14:09;;;;;;;14.70;9.40;;;;;;;5.29;81.00;99688.10;103735;280;39175;-74
2023/03/13 08:16:43;;;;;;;15.50;8.60;;;;;;;5.38;80.98;99689.04;103600;280;39529;-75
2023/03/13 08:19:17;;;;;;;11.40;7.80;;;;;;;5.50;80.84;99687.85;103698;279;38245;-75
2023/03/13 08:21:51;;;;;;;13.00;8.70;;;;;;;5.58;80.39;99688.30;103726;279;38380;-74
2023/03/13 08:24:26;;;;;;;12.20;8.60;;;;;;;5.64;80.01;99690.35;103561;280;175626;-74
2023/03/13 08:26:59;;;;;;;11.80;8.30;;;;;;;5.71;79.87;99693.47;103701;279;38998;-74
2023/03/13 08:29:33;;;;;;;14.20;9.00;;;;;;;5.75;79.69;99692.66;103742;279;38320;-73
2023/03/13 08:32:08;;;;;;;13.70;8.60;;;;;;;5.79;79.58;99693.75;103672;279;39625;-74
2023/03/13 08:34:43;;;;;;;10.40;7.50;;;;;;;5.81;79.22;99690.05;103718;279;39437;-74
2023/03/13 08:37:20;;;;;;;9.30;7.60;;;;;;;5.85;79.21;99688.02;103729;279;38383;-74
2023/03/13 08:39:55;;;;;;;13.10;8.00;;;;;;;5.89;79.24;99680.64;103710;279;38437;-73
2023/03/13 08:42:29;;;;;;;14.00;8.80;;;;;;;5.94;79.11;99680.33;103684;279;39424;-73
2023/03/13 08:45:03;;;;;;;11.20;8.20;;;;;;;5.99;78.95;99672.61;103728;279;38497;-74
2023/03/13 08:47:37;;;;;;;12.80;8.30;;;;;;;6.01;78.84;99665.27;103717;279;39886;-73
2023/03/13 08:50:13;;;;;;;13.30;8.00;;;;;;;6.04;78.80;99663.10;103751;279;39694;-73
2023/03/13 08:52:49;;;;;;;13.20;7.60;;;;;;;6.07;78.69;99656.61;103725;279;40414;-74
2023/03/13 08:55:23;;;;;;;11.40;7.30;;;;;;;6.14;78.76;99649.79;103100;279;910297;-75
2023/03/13 08:57:57;;;;;;;12.20;7.60;;;;;;;6.26;78.98;99646.13;103744;279;38272;-74
2023/03/13 09:00:31;;;;;;;11.60;8.10;;;;;;;6.40;79.00;99639.77;103695;279;38505;-74
2023/03/13 09:03:05;;;;;;;14.80;8.00;;;;;;;6.54;78.82;99634.98;103742;279;38223;-73
2023/03/13 09:05:40;;;;;;;16.90;8.60;;;;;;;6.68;78.62;99629.48;103738;279;38454;-73
2023/03/13 09:08:15;;;;;;;13.50;7.70;;;;;;;6.86;78.71;99622.98;103755;279;38454;-73
2023/03/13 09:10:49;;;;;;;11.20;7.50;;;;;;;7.12;79.16;99617.03;103679;279;39441;-72
2023/03/13 09:13:23;;;;;;;12.50;7.20;;;;;;;7.43;78.88;99611.54;103721;279;39419;-73
2023/03/13 09:16:01;;;;;;;12.30;8.00;;;;;;;7.75;78.36;99601.83;103674;279;38529;-74
2023/03/13 09:18:35;;;;;;;10.50;7.60;;;;;;;8.05;77.56;99597.55;103690;279;39455;-73
2023/03/13 09:21:14;;;;;;;10.10;7.60;;;;;;;8.32;76.82;99591.23;103711;279;39825;-73
2023/03/13 09:23:47;;;;;;;;;;;;;;;8.62;77.15;99585.48;103700;279;38491;-74
2023/03/13 09:26:21;;;;;;;13.40;7.40;;;;;;;8.94;77.02;99579.04;103688;279;39928;-74
2023/03/13 09:28:55;;;;;;;14.30;8.50;;;;;;;9.25;76.62;99574.85;103728;279;38477;-74
2023/03/13 09:31:30;;;;;;;12.10;7.30;;;;;;;9.57;75.67;99576.70;103674;279;39830;-75
2023/03/13 09:34:04;;;;;;;13.30;7.70;;;;;;;9.78;74.62;99572.93;103707;279;39716;-75
2023/03/13 09:36:38;;;;;;;10.20;7.10;;;;;;;9.98;74.07;99565.20;103671;279;39192;-74
2023/03/13 09:39:12;;;;;;;12.80;6.90;;;;;;;10.19;73.23;99563.83;103676;279;39395;-75
2023/03/13 09:41:51;;;;;;;13.30;6.10;;;;;;;10.40;73.03;99561.20;103702;279;38235;-75
2023/03/13 09:44:25;;;;;;;;;;;;;;;10.64;72.77;99554.44;103787;279;38528;-74
2023/03/13 09:47:04;;;;;;;12.00;6.40;;;;;;;10.82;72.33;99551.92;103589;279;175233;-75
2023/03/13 09:49:39;;;;;;;11.30;5.70;;;;;;;11.03;71.20;99549.43;103803;279;38886;-72
2023/03/13 09:52:21;;;;;;;12.30;6.30;;;;;;;11.08;70.17;99548.62;103755;279;38288;-74
2023/03/13 09:54:57;;;;;;;12.50;6.20;;;;;;;11.10;69.88;99541.22;103701;279;38254;-75
2023/03/13 09:57:35;;;;;;;11.10;6.20;;;;;;;11.09;68.86;99538.28;103699;279;39676;-74
2023/03/13 10:00:13;;;;;;;12.00;6.20;;;;;;;11.03;68.36;99533.55;103706;279;39976;-74
2023/03/13 10:02:52;;;;;;;12.90;6.60;;;;;;;11.01;68.49;99531.76;103657;279;38725;-73
2023/03/13 10:05:27;;;;;;;10.80;5.90;;;;;;;10.99;68.49;99527.46;103698;267;39497;-74
2023/03/13 10:08:08;;;;;;;11.60;6.00;;;;;;;10.97;68.16;99522.17;103711;279;39938;-74
2023/03/13 10:10:45;;;;;;;11.60;5.50;;;;;;;10.95;68.30;99526.46;103696;279;38924;-75
2023/03/13 10:13:26;;;;;;;11.10;6.30;;;;;;;10.95;68.14;99523.18;103575;320;188686;-73
2023/03/13 10:16:01;;;;;;;13.90;6.00;;;;;;;10.95;68.62;99523.70;103667;279;38336;-73
2023/03/13 10:18:35;;;;;;;11.50;5.90;;;;;;;10.96;68.39;99519.83;103745;279;39589;-73
2023/03/13 10:21:17;;;;;;;13.80;5.90;;;;;;;10.95;68.00;99525.24;103646;279;38240;-74
2023/03/13 10:23:53;;;;;;;14.10;5.60;;;;;;;10.92;67.80;99521.95;103667;279;39426;-74
2023/03/13 10:26:29;;;;;;;12.30;5.70;;;;;;;10.87;67.88;99523.25;103660;279;39126;-74
2023/03/13 10:29:22;;;;;;;12.30;5.30;;;;;;;10.89;68.39;99527.34;103672;279;38358;-74
2023/03/13 10:31:59;;;;;;;13.10;5.50;;;;;;;10.90;67.55;99526.09;103673;280;38293;-75
2023/03/13 10:34:49;;;;;;;12.80;5.60;;;;;;;10.82;67.57;99520.84;103689;279;40285;-75
2023/03/13 10:37:27;;;;;;;10.50;5.30;;;;;;;10.79;67.95;99521.19;103675;279;38498;-75
2023/03/13 10:40:21;;;;;;;12.10;5.20;;;;;;;10.74;68.32;99514.99;103717;279;38815;-74
2023/03/13 10:43:02;;;;;;;16.30;6.40;;;;;;;10.75;68.70;99505.73;103772;279;38510;-73
2023/03/13 10:45:40;;;;;;;14.50;5.70;;;;;;;10.79;69.15;99496.98;103647;279;38590;-74
2023/03/13 10:48:20;;;;;;;13.10;5.80;;;;;;;10.83;69.23;99487.84;103777;279;38253;-73
2023/03/13 10:50:56;;;;;;;13.10;5.60;;;;;;;10.85;69.47;99483.35;103583;279;174300;-74
2023/03/13 10:53:37;;;;;;;14.30;5.40;;;;;;;10.89;69.59;99483.02;103740;279;39432;-75
2023/03/13 10:56:14;;;;;;;14.90;5.50;;;;;;;10.94;70.12;99481.34;103735;279;39445;-74
2023/03/13 10:58:49;;;;;;;14.70;5.60;;;;;;;11.02;70.35;99473.73;103760;279;39466;-74
2023/03/13 11:01:27;;;;;;;17.10;5.50;;;;;;;11.10;70.03;99465.11;103738;279;38296;-74
2023/03/13 11:04:01;;;;;;;16.00;6.10;;;;;;;11.13;70.00;99463.19;103720;279;38277;-75
2023/03/13 11:06:36;;;;;;;13.40;5.70;;;;;;;11.19;69.92;99459.54;103722;279;40207;-74
2023/03/13 11:09:15;;;;;;;16.50;7.00;;;;;;;11.23;69.52;99450.61;103763;279;38511;-72
2023/03/13 11:11:49;;;;;;;;;;;;;;;11.24;68.82;99444.60;103753;279;38360;-74
2023/03/13 11:14:24;;;;;;;12.20;5.60;;;;;;;11.20;68.67;99438.73;103710;279;39725;-74
2023/03/13 11:17:03;;;;;;;12.50;6.50;;;;;;;11.23;68.81;99434.89;103710;279;38321;-74
2023/03/13 11:19:54;;;;;;;15.10;7.50;;;;;;;11.27;68.62;99431.17;103726;279;39761;-73
2023/03/13 11:22:49;;;;;;;14.30;7.30;;;;;;;11.33;68.36;99423.99;103739;279;38273;-73
2023/03/13 11:25:35;;;;;;;12.60;5.90;;;;;;;11.43;68.16;99413.13;103765;279;38352;-74
2023/03/13 11:28:26;;;;;;;11.30;5.60;;;;;;;11.51;67.28;99401.02;103721;279;38426;-73
2023/03/13 11:31:13;;;;;;;11.30;5.20;;;;;;;11.59;67.15;99386.77;103716;279;39705;-75
2023/03/13 11:33:57;;;;;;;13.70;6.80;;;;;;;11.74;67.10;99383.27;103710;279;38314;-75
2023/03/13 11:36:36;;;;;;;11.00;5.10;;;;;;;11.86;66.36;99377.30;103722;279;39406;-75
2023/03/13 11:39:30;;;;;;;11.30;5.20;;;;;;;11.96;65.17;99376.70;103730;279;38611;-73
2023/03/13 11:42:07;;;;;;;14.00;5.50;;;;;;;12.06;65.42;99368.59;103715;279;39866;-74
2023/03/13 11:44:50;;;;;;;10.90;5.30;;;;;;;12.15;64.68;99361.41;103685;279;38996;-73
2023/03/13 11:47:46;;;;;;;10.70;5.10;;;;;;;12.22;64.53;99354.73;103719;279;38560;-73
2023/03/13 11:50:40;;;;;;;12.40;5.50;;;;;;;12.27;63.72;99350.05;103748;279;39954;-73
2023/03/13 11:53:35;;;;;;;10.20;4.90;;;;;;;12.30;63.22;99350.67;103782;279;38707;-73
2023/03/13 11:56:13;;;;;;;12.10;5.30;;;;;;;12.35;64.15;99349.17;103608;279;175327;-73
2023/03/13 11:58:56;;;;;;;16.20;6.90;;;;;;;12.44;63.22;99348.98;103704;279;39894;-75
2023/03/13 12:01:31;;;;;;;16.20;6.10;;;;;;;12.49;63.04;99345.90;103746;279;38515;-72
2023/03/13 12:04:08;;;;;;;10.10;4.90;;;;;;;12.50;62.63;99340.54;103710;279;38385;-74
2023/03/13 12:06:46;;;;;;;10.20;5.40;;;;;;;12.49;62.45;99339.59;103740;279;38518;-75
2023/03/13 12:09:25;;;;;;;13.70;5.20;;;;;;;12.47;62.38;99336.06;103725;279;38328;-74